createdAt,value
2023-05-05T00:00:23.658Z,109.62
2023-05-05T00:01:23.622Z,109.70
2023-05-05T00:02:23.643Z,109.93
2023-05-05T00:03:23.711Z,108.44
2023-05-05T00:04:23.703Z,108.86
2023-05-05T00:05:23.662Z,109.70
2023-05-05T00:06:23.697Z,108.73
2023-05-05T00:07:23.692Z,106.87
2023-05-05T00:08:23.699Z,107.40
2023-05-05T00:09:23.810Z,106.56
2023-05-05T00:10:23.721Z,105.29
2023-05-05T00:11:23.752Z,106.05
2023-05-05T00:12:23.747Z,104.59
2023-05-05T00:13:23.757Z,104.73
2023-05-05T00:14:23.757Z,103.15
2023-05-05T00:15:23.839Z,103.61
2023-05-05T00:16:23.872Z,101.37
2023-05-05T00:17:23.790Z,102.36
2023-05-05T00:18:23.836Z,102.88
2023-05-05T00:19:23.853Z,100.77
2023-05-05T00:20:23.848Z,102.88
2023-05-05T00:21:23.855Z,100.14
2023-05-05T00:22:23.862Z,101.17
2023-05-05T00:23:23.881Z,101.26
2023-05-05T00:24:23.883Z,100.62
2023-05-05T00:25:23.877Z,99.85
2023-05-05T00:26:23.929Z,99.28
2023-05-05T00:27:23.906Z,99.37
2023-05-05T00:28:24.006Z,99.43
2023-05-05T00:29:23.962Z,99.35
2023-05-05T00:30:23.971Z,99.50
2023-05-05T00:31:23.995Z,99.01
2023-05-05T00:32:23.986Z,97.78
2023-05-05T00:33:23.994Z,97.57
2023-05-05T00:34:24.055Z,96.84
2023-05-05T00:35:24.072Z,96.49
2023-05-05T00:36:24.080Z,96.43
2023-05-05T00:37:24.078Z,95.97
2023-05-05T00:38:24.069Z,96.03
2023-05-05T00:39:24.094Z,95.36
2023-05-05T00:40:24.098Z,95.16
2023-05-05T00:41:24.092Z,94.50
2023-05-05T00:42:24.111Z,94.50
2023-05-05T00:43:24.130Z,93.31
2023-05-05T00:44:24.119Z,92.87
2023-05-05T00:45:24.127Z,93.03
2023-05-05T00:46:24.137Z,92.59
2023-05-05T00:47:24.187Z,93.87
2023-05-05T00:48:24.190Z,91.44
2023-05-05T00:49:24.274Z,92.83
2023-05-05T00:50:24.213Z,91.08
2023-05-05T00:51:24.237Z,90.53
2023-05-05T00:52:24.217Z,91.40
2023-05-05T00:53:24.241Z,90.15
2023-05-05T00:54:24.300Z,91.18
2023-05-05T00:55:24.274Z,91.91
2023-05-05T00:56:24.314Z,88.79
2023-05-05T00:57:24.329Z,89.44
2023-05-05T00:58:24.322Z,89.53
2023-05-05T00:59:24.333Z,89.43
2023-05-05T01:00:24.342Z,88.55
2023-05-05T01:01:24.395Z,87.93
2023-05-05T01:02:24.376Z,86.62
2023-05-05T01:03:24.476Z,87.73
2023-05-05T01:04:24.410Z,86.31
2023-05-05T01:05:24.390Z,86.14
2023-05-05T01:06:24.495Z,85.94
2023-05-05T01:07:24.456Z,86.37
2023-05-05T01:08:24.493Z,85.20
2023-05-05T01:09:24.494Z,86.45
2023-05-05T01:10:24.722Z,86.04
2023-05-05T01:11:24.560Z,84.79
2023-05-05T01:12:24.529Z,84.10
2023-05-05T01:13:24.576Z,84.82
2023-05-05T01:14:24.641Z,84.49
2023-05-05T01:15:24.682Z,84.02
2023-05-05T01:16:24.631Z,83.59
2023-05-05T01:17:24.726Z,82.92
2023-05-05T01:18:24.661Z,82.75
2023-05-05T01:19:24.675Z,82.66
2023-05-05T01:20:24.713Z,83.32
2023-05-05T01:21:24.706Z,83.06
2023-05-05T01:22:24.736Z,80.24
2023-05-05T01:23:24.721Z,81.81
2023-05-05T01:24:24.861Z,81.16
2023-05-05T01:25:24.757Z,80.28
2023-05-05T01:26:24.812Z,81.54
2023-05-05T01:27:24.807Z,80.23
2023-05-05T01:28:24.830Z,79.15
2023-05-05T01:29:24.835Z,80.43
2023-05-05T01:30:24.845Z,79.50
2023-05-05T01:31:24.998Z,79.25
2023-05-05T01:32:24.905Z,79.51
2023-05-05T01:33:25.069Z,77.87
2023-05-05T01:34:24.923Z,78.19
2023-05-05T01:35:24.936Z,78.94
2023-05-05T01:36:24.929Z,78.71
2023-05-05T01:37:25.044Z,78.30
2023-05-05T01:38:24.989Z,78.24
2023-05-05T01:39:25.018Z,77.54
2023-05-05T01:40:25.013Z,78.92
2023-05-05T01:41:25.061Z,76.59
2023-05-05T01:42:25.062Z,76.86
2023-05-05T01:43:25.069Z,75.90
2023-05-05T01:44:25.090Z,76.26
2023-05-05T01:45:25.107Z,75.23
2023-05-05T01:46:25.159Z,75.29
2023-05-05T01:47:25.210Z,74.93
2023-05-05T01:48:25.175Z,75.97
2023-05-05T01:49:25.194Z,76.24
2023-05-05T01:50:25.235Z,74.97
2023-05-05T01:51:25.228Z,74.92
2023-05-05T01:52:25.244Z,74.93
2023-05-05T01:53:25.280Z,74.52
2023-05-05T01:54:25.320Z,74.16
2023-05-05T01:55:25.311Z,74.66
2023-05-05T01:56:25.331Z,72.34
2023-05-05T01:57:25.385Z,73.76
2023-05-05T01:58:25.385Z,73.83
2023-05-05T01:59:25.372Z,73.10
2023-05-05T02:00:25.462Z,71.29
2023-05-05T02:01:25.443Z,72.82
2023-05-05T02:02:25.479Z,71.81
2023-05-05T02:03:25.584Z,72.00
2023-05-05T02:04:25.504Z,72.25
2023-05-05T02:05:25.501Z,71.64
2023-05-05T02:06:25.524Z,71.30
2023-05-05T02:07:25.560Z,72.62
2023-05-05T02:08:25.616Z,70.57
2023-05-05T02:09:25.628Z,69.25
2023-05-05T02:10:25.649Z,69.22
2023-05-05T02:11:25.663Z,70.38
2023-05-05T02:12:25.673Z,69.56
2023-05-05T02:13:25.747Z,69.76
2023-05-05T02:14:25.755Z,69.54
2023-05-05T02:15:25.768Z,69.06
2023-05-05T02:16:25.768Z,69.68
2023-05-05T02:17:25.933Z,67.92
2023-05-05T02:18:25.828Z,69.65
2023-05-05T02:19:25.832Z,69.37
2023-05-05T02:20:25.901Z,67.63
2023-05-05T02:21:25.913Z,67.85
2023-05-05T02:22:25.925Z,68.02
2023-05-05T02:23:25.938Z,67.67
2023-05-05T02:24:25.962Z,66.99
2023-05-05T02:25:26.113Z,65.71
2023-05-05T02:26:26.063Z,67.39
2023-05-05T02:27:26.038Z,65.64
2023-05-05T02:28:26.059Z,65.65
2023-05-05T02:29:26.073Z,66.57
2023-05-05T02:30:26.109Z,66.35
2023-05-05T02:31:26.181Z,65.88
2023-05-05T02:32:26.201Z,66.05
2023-05-05T02:33:26.191Z,65.92
2023-05-05T02:34:26.204Z,65.50
2023-05-05T02:35:26.238Z,64.69
2023-05-05T02:36:26.327Z,65.40
2023-05-05T02:37:26.273Z,64.06
2023-05-05T02:38:26.316Z,63.61
2023-05-05T02:39:26.348Z,64.54
2023-05-05T02:40:26.358Z,63.93
2023-05-05T02:41:26.366Z,65.29
2023-05-05T02:42:26.400Z,63.54
2023-05-05T02:43:26.521Z,64.49
2023-05-05T02:44:26.489Z,62.85
2023-05-05T02:45:26.480Z,63.03
2023-05-05T02:46:26.550Z,63.27
2023-05-05T02:47:26.561Z,62.37
2023-05-05T02:48:26.559Z,62.40
2023-05-05T02:49:26.611Z,62.05
2023-05-05T02:50:26.676Z,62.73
2023-05-05T02:51:26.646Z,62.02
2023-05-05T02:52:26.693Z,62.10
2023-05-05T02:53:26.750Z,60.53
2023-05-05T02:54:27.815Z,61.69
2023-05-05T02:55:26.746Z,60.70
2023-05-05T02:56:26.807Z,60.22
2023-05-05T02:57:26.818Z,60.11
2023-05-05T02:58:26.886Z,60.42
2023-05-05T02:59:26.884Z,60.49
2023-05-05T03:00:26.925Z,61.10
2023-05-05T03:01:26.996Z,59.37
2023-05-05T03:02:27.075Z,60.17
2023-05-05T03:03:27.079Z,59.94
2023-05-05T03:04:27.091Z,60.48
2023-05-05T03:05:27.064Z,59.21
2023-05-05T03:06:27.136Z,59.88
2023-05-05T03:07:27.188Z,59.43
2023-05-05T03:08:27.198Z,58.92
2023-05-05T03:09:27.202Z,59.01
2023-05-05T03:10:27.260Z,58.81
2023-05-05T03:11:27.236Z,58.11
2023-05-05T03:12:27.318Z,58.43
2023-05-05T03:13:27.307Z,57.74
2023-05-05T03:14:27.414Z,57.42
2023-05-05T03:15:27.412Z,57.36
2023-05-05T03:16:27.432Z,57.23
2023-05-05T03:17:27.503Z,57.27
2023-05-05T03:18:27.518Z,56.16
2023-05-05T03:19:27.529Z,56.23
2023-05-05T03:20:27.593Z,55.91
2023-05-05T03:21:27.606Z,56.11
2023-05-05T03:22:27.661Z,56.86
2023-05-05T03:23:27.662Z,56.40
2023-05-05T03:24:27.671Z,55.93
2023-05-05T03:25:27.701Z,55.97
2023-05-05T03:26:27.806Z,55.71
2023-05-05T03:27:27.796Z,55.14
2023-05-05T03:28:27.800Z,55.36
2023-05-05T03:29:27.902Z,55.60
2023-05-05T03:30:27.956Z,55.90
2023-05-05T03:31:27.941Z,54.87
2023-05-05T03:32:27.977Z,55.06
2023-05-05T03:33:27.995Z,54.04
2023-05-05T03:34:28.050Z,54.01
2023-05-05T03:35:28.101Z,54.19
2023-05-05T03:36:29.405Z,54.70
2023-05-05T03:37:28.163Z,53.41
2023-05-05T03:38:28.178Z,53.87
2023-05-05T03:39:28.179Z,53.79
2023-05-05T03:40:40.390Z,53.37
2023-05-05T03:41:29.211Z,53.45
2023-05-05T03:42:28.210Z,53.59
2023-05-05T03:43:28.210Z,53.31
2023-05-05T03:44:28.220Z,53.44
2023-05-05T03:45:28.181Z,54.17
2023-05-05T03:46:28.182Z,53.57
2023-05-05T03:47:28.197Z,53.32
2023-05-05T03:48:28.240Z,53.01
2023-05-05T03:49:28.143Z,53.53
2023-05-05T03:50:28.146Z,52.87
2023-05-05T03:51:28.155Z,52.73
2023-05-05T03:52:28.155Z,52.21
2023-05-05T03:53:28.172Z,52.45
2023-05-05T03:54:28.181Z,51.99
2023-05-05T03:55:28.229Z,51.86
2023-05-05T03:56:28.303Z,51.44
2023-05-05T03:57:28.307Z,51.81
2023-05-05T03:58:28.371Z,51.16
2023-05-05T03:59:28.429Z,51.72
2023-05-05T04:00:28.445Z,51.63
2023-05-05T04:01:28.483Z,51.31
2023-05-05T04:02:28.630Z,50.75
2023-05-05T04:03:28.665Z,51.01
2023-05-05T04:04:28.639Z,49.21
2023-05-05T04:05:28.609Z,48.09
2023-05-05T04:06:28.681Z,46.59
2023-05-05T04:07:28.662Z,45.65
2023-05-05T04:08:28.681Z,44.74
2023-05-05T04:09:28.751Z,43.18
2023-05-05T04:10:28.756Z,43.14
2023-05-05T04:11:28.813Z,41.46
2023-05-05T04:12:28.831Z,41.12
2023-05-05T04:13:28.858Z,40.24
2023-05-05T04:14:28.957Z,38.81
2023-05-05T04:15:28.941Z,38.18
2023-05-05T04:16:29.014Z,37.18
2023-05-05T04:17:29.033Z,36.56
2023-05-05T04:18:29.070Z,35.64
2023-05-05T04:19:29.110Z,34.53
2023-05-05T04:20:29.183Z,34.70
2023-05-05T04:21:29.193Z,33.51
2023-05-05T04:22:29.235Z,33.07
2023-05-05T04:23:29.291Z,32.47
2023-05-05T04:24:29.322Z,30.89
2023-05-05T04:25:29.267Z,30.82
2023-05-05T04:26:29.429Z,30.73
2023-05-05T04:27:29.333Z,30.52
2023-05-05T04:28:29.342Z,29.41
2023-05-05T04:29:29.338Z,28.75
2023-05-05T04:30:29.377Z,28.38
2023-05-05T04:31:29.494Z,28.05
2023-05-05T04:32:29.372Z,28.84
2023-05-05T04:33:29.330Z,28.12
2023-05-05T04:34:29.375Z,28.46
2023-05-05T04:35:29.383Z,28.43
2023-05-05T04:36:29.389Z,28.44
2023-05-05T04:37:29.431Z,27.75
2023-05-05T04:38:29.560Z,28.09
2023-05-05T04:39:29.360Z,28.18
2023-05-05T04:40:29.431Z,28.46
2023-05-05T04:41:30.093Z,28.20
2023-05-05T04:42:29.391Z,28.73
2023-05-05T04:43:29.368Z,28.12
2023-05-05T04:44:29.400Z,28.52
2023-05-05T04:45:29.403Z,27.94
2023-05-05T04:46:29.428Z,28.24
2023-05-05T04:47:29.520Z,28.11
2023-05-05T04:48:29.473Z,28.69
2023-05-05T04:49:29.512Z,28.07
2023-05-05T04:50:29.545Z,28.61
2023-05-05T04:51:29.589Z,28.49
2023-05-05T04:52:29.661Z,28.07
2023-05-05T04:53:29.702Z,27.79
2023-05-05T04:54:29.764Z,28.38
2023-05-05T04:55:29.762Z,28.50
2023-05-05T04:56:29.841Z,28.92
2023-05-05T04:57:29.841Z,29.13
2023-05-05T04:58:29.846Z,29.46
2023-05-05T04:59:29.853Z,29.26
2023-05-05T05:00:29.869Z,29.12
2023-05-05T05:01:29.854Z,29.08
2023-05-05T05:02:29.913Z,28.84
2023-05-05T05:03:29.983Z,29.25
2023-05-05T05:04:29.897Z,29.10
2023-05-05T05:05:29.899Z,28.96
2023-05-05T05:06:29.906Z,28.83
2023-05-05T05:07:29.845Z,28.91
2023-05-05T05:08:29.924Z,28.75
2023-05-05T05:09:29.974Z,28.98
2023-05-05T05:10:29.986Z,29.30
2023-05-05T05:11:29.975Z,28.20
2023-05-05T05:12:30.043Z,28.28
2023-05-05T05:13:29.986Z,27.62
2023-05-05T05:14:30.111Z,27.63
2023-05-05T05:15:30.108Z,27.56
2023-05-05T05:16:30.105Z,27.09
2023-05-05T05:17:30.187Z,26.93
2023-05-05T05:18:30.130Z,26.73
2023-05-05T05:19:30.116Z,26.52
2023-05-05T05:20:30.126Z,26.31
2023-05-05T05:21:30.165Z,26.44
2023-05-05T05:22:30.229Z,25.94
2023-05-05T05:23:30.246Z,25.31
2023-05-05T05:24:30.268Z,24.98
2023-05-05T05:25:30.243Z,25.56
2023-05-05T05:26:30.251Z,24.76
2023-05-05T05:27:30.380Z,25.15
2023-05-05T05:28:30.424Z,24.81
2023-05-05T05:29:30.391Z,24.68
2023-05-05T05:30:30.401Z,24.80
2023-05-05T05:31:30.410Z,24.71
2023-05-05T05:32:30.515Z,25.72
2023-05-05T05:33:30.629Z,25.36
2023-05-05T05:34:30.551Z,25.71
2023-05-05T05:35:30.515Z,26.58
2023-05-05T05:36:31.342Z,26.01
2023-05-05T05:37:30.584Z,27.07
2023-05-05T05:38:30.642Z,27.22
2023-05-05T05:39:30.684Z,26.62
2023-05-05T05:40:30.858Z,26.64
2023-05-05T05:41:30.804Z,27.52
2023-05-05T05:42:30.915Z,27.16
2023-05-05T05:43:31.012Z,28.81
2023-05-05T05:44:31.294Z,28.11
2023-05-05T05:45:31.017Z,28.34
2023-05-05T05:46:31.125Z,28.21
2023-05-05T05:47:31.153Z,27.94
2023-05-05T05:48:31.322Z,27.34
2023-05-05T05:49:32.808Z,27.88
2023-05-05T05:50:31.342Z,27.58
2023-05-05T05:51:31.345Z,28.61
2023-05-05T05:52:31.502Z,30.21
2023-05-05T05:53:31.502Z,29.71
2023-05-05T05:54:31.982Z,30.20
2023-05-05T05:55:31.525Z,30.30
2023-05-05T05:56:31.493Z,30.71
2023-05-05T05:57:31.829Z,30.57
2023-05-05T05:58:31.705Z,30.88
2023-05-05T05:59:31.608Z,31.17
2023-05-05T06:00:31.749Z,31.48
2023-05-05T06:01:32.345Z,31.28
2023-05-05T06:02:31.815Z,31.65
2023-05-05T06:03:31.882Z,31.80
2023-05-05T06:04:31.853Z,32.18
2023-05-05T06:05:31.850Z,32.90
2023-05-05T06:06:31.861Z,33.13
2023-05-05T06:07:31.860Z,32.14
2023-05-05T06:08:32.476Z,33.57
2023-05-05T06:09:31.979Z,33.39
2023-05-05T06:10:32.220Z,34.12
2023-05-05T06:11:31.994Z,34.73
2023-05-05T06:12:32.117Z,35.14
2023-05-05T06:13:32.319Z,35.83
2023-05-05T06:14:32.042Z,35.95
2023-05-05T06:15:32.076Z,35.93
2023-05-05T06:16:32.110Z,35.43
2023-05-05T06:17:32.181Z,36.42
2023-05-05T06:18:32.383Z,35.77
2023-05-05T06:19:32.177Z,36.59
2023-05-05T06:20:32.267Z,35.81
2023-05-05T06:21:32.602Z,36.43
2023-05-05T06:22:32.265Z,36.00
2023-05-05T06:23:32.314Z,37.21
2023-05-05T06:24:32.273Z,37.24
2023-05-05T06:25:32.295Z,38.46
2023-05-05T06:26:32.344Z,39.68
2023-05-05T06:27:32.426Z,40.77
2023-05-05T06:28:32.838Z,40.13
2023-05-05T06:29:32.415Z,40.55
2023-05-05T06:30:32.364Z,39.19
2023-05-05T06:31:32.395Z,40.52
2023-05-05T06:32:32.391Z,38.53
2023-05-05T06:33:32.367Z,40.42
2023-05-05T06:34:32.372Z,42.15
2023-05-05T06:35:32.884Z,42.03
2023-05-05T06:36:32.501Z,41.66
2023-05-05T06:37:32.414Z,40.67
2023-05-05T06:38:32.423Z,40.54
2023-05-05T06:39:32.430Z,38.65
2023-05-05T06:40:32.861Z,41.79
2023-05-05T06:41:32.535Z,41.90
2023-05-05T06:42:32.510Z,41.24
2023-05-05T06:43:32.440Z,41.51
2023-05-05T06:44:32.422Z,41.18
2023-05-05T06:45:32.487Z,40.57
2023-05-05T06:46:32.580Z,40.95
2023-05-05T06:47:32.445Z,54.48
2023-05-05T06:48:32.488Z,42.13
2023-05-05T06:49:32.451Z,39.36
2023-05-05T06:50:32.451Z,38.84
2023-05-05T06:51:32.480Z,38.18
2023-05-05T06:52:32.796Z,37.44
2023-05-05T06:53:32.927Z,38.67
2023-05-05T06:54:32.944Z,36.43
2023-05-05T06:55:32.909Z,36.21
2023-05-05T06:56:33.505Z,36.73
2023-05-05T06:57:32.557Z,36.71
2023-05-05T06:58:32.836Z,37.33
2023-05-05T06:59:32.655Z,37.21
2023-05-05T07:00:32.657Z,37.06
2023-05-05T07:01:32.725Z,37.79
2023-05-05T07:02:32.635Z,36.52
2023-05-05T07:03:32.800Z,38.03
2023-05-05T07:04:32.851Z,39.01
2023-05-05T07:05:32.804Z,38.23
2023-05-05T07:06:32.992Z,37.12
2023-05-05T07:07:32.916Z,38.43
2023-05-05T07:08:33.349Z,37.91
2023-05-05T07:09:32.977Z,39.52
2023-05-05T07:10:33.184Z,37.53
2023-05-05T07:11:33.108Z,38.28
2023-05-05T07:12:33.206Z,38.58
2023-05-05T07:13:33.508Z,39.51
2023-05-05T07:14:33.287Z,39.56
2023-05-05T07:15:33.331Z,40.77
2023-05-05T07:16:33.440Z,40.94
2023-05-05T07:17:33.565Z,39.80
2023-05-05T07:18:33.914Z,39.78
2023-05-05T07:19:33.649Z,39.51
2023-05-05T07:20:33.600Z,39.10
2023-05-05T07:21:33.577Z,40.33
2023-05-05T07:22:33.646Z,40.15
2023-05-05T07:23:33.698Z,39.30
2023-05-05T07:24:33.729Z,41.96
2023-05-05T07:25:33.747Z,42.49
2023-05-05T07:26:33.789Z,41.29
2023-05-05T07:27:33.920Z,42.96
2023-05-05T07:28:33.831Z,42.44
2023-05-05T07:29:33.949Z,41.01
2023-05-05T07:30:36.444Z,40.62
2023-05-05T07:31:34.518Z,40.94
2023-05-05T07:32:33.938Z,40.80
2023-05-05T07:33:33.880Z,41.21
2023-05-05T07:34:33.887Z,37.66
2023-05-05T07:35:33.897Z,36.01
2023-05-05T07:36:33.877Z,34.95
2023-05-05T07:37:33.815Z,32.90
2023-05-05T07:38:34.409Z,31.02
2023-05-05T07:39:33.936Z,31.58
2023-05-05T07:40:34.359Z,28.47
2023-05-05T07:41:33.917Z,29.04
2023-05-05T07:42:33.877Z,28.44
2023-05-05T07:43:34.028Z,24.93
2023-05-05T07:44:33.772Z,21.67
2023-05-05T07:45:33.976Z,24.02
2023-05-05T07:46:33.937Z,24.96
2023-05-05T07:47:33.928Z,21.14
2023-05-05T07:48:33.824Z,23.82
2023-05-05T07:49:34.513Z,23.97
2023-05-05T07:50:34.399Z,24.05
2023-05-05T07:51:34.628Z,21.30
2023-05-05T07:52:45.026Z,19.27
2023-05-05T07:53:34.716Z,19.33
2023-05-05T07:54:33.727Z,18.55
2023-05-05T07:55:33.878Z,19.05
2023-05-05T07:56:33.717Z,17.70
2023-05-05T07:57:33.670Z,19.15
2023-05-05T07:58:33.735Z,18.93
2023-05-05T07:59:33.677Z,19.69
2023-05-05T08:00:33.846Z,19.51
2023-05-05T08:01:33.689Z,17.62
2023-05-05T08:02:33.895Z,16.41
2023-05-05T08:03:33.976Z,16.55
2023-05-05T08:04:33.775Z,15.77
2023-05-05T08:05:33.740Z,16.99
2023-05-05T08:06:33.819Z,16.00
2023-05-05T08:07:34.356Z,15.45
2023-05-05T08:08:33.872Z,14.99
2023-05-05T08:09:33.879Z,14.59
2023-05-05T08:10:34.400Z,12.87
2023-05-05T08:11:33.919Z,12.12
2023-05-05T08:12:34.010Z,13.26
2023-05-05T08:13:33.969Z,12.53
2023-05-05T08:14:34.064Z,13.04
2023-05-05T08:15:34.056Z,9.07
2023-05-05T08:16:34.251Z,6.91
2023-05-05T08:17:34.458Z,7.49
2023-05-05T08:18:34.215Z,5.33
2023-05-05T08:19:34.275Z,5.61
2023-05-05T08:20:34.386Z,6.01
2023-05-05T08:21:35.354Z,5.64
2023-05-05T08:22:34.447Z,5.99
2023-05-05T08:23:34.519Z,7.32
2023-05-05T08:24:34.557Z,7.49
2023-05-05T08:25:34.641Z,6.88
2023-05-05T08:26:34.694Z,7.22
2023-05-05T08:27:34.754Z,7.24
2023-05-05T08:28:34.792Z,8.60
2023-05-05T08:29:34.863Z,7.82
2023-05-05T08:30:34.867Z,8.64
2023-05-05T08:31:34.930Z,8.60
2023-05-05T08:32:35.060Z,7.60
2023-05-05T08:33:35.100Z,7.09
2023-05-05T08:34:35.145Z,7.20
2023-05-05T08:35:35.147Z,6.44
2023-05-05T08:36:35.245Z,6.66
2023-05-05T08:37:35.421Z,5.62
2023-05-05T08:38:35.373Z,5.74
2023-05-05T08:39:35.398Z,6.17
2023-05-05T08:40:35.496Z,5.19
2023-05-05T08:41:35.548Z,5.11
2023-05-05T08:42:38.487Z,5.60
2023-05-05T08:43:35.589Z,6.42
2023-05-05T08:44:35.618Z,5.48
2023-05-05T08:45:36.102Z,4.84
2023-05-05T08:46:35.910Z,5.25
2023-05-05T08:47:35.641Z,4.89
2023-05-05T08:48:35.545Z,4.82
2023-05-05T08:49:35.610Z,4.00
2023-05-05T08:50:35.515Z,4.49
2023-05-05T08:51:35.731Z,3.79
2023-05-05T08:52:35.570Z,3.85
2023-05-05T08:53:35.520Z,5.06
2023-05-05T08:54:35.911Z,3.64
2023-05-05T08:55:35.477Z,3.04
2023-05-05T08:56:35.488Z,3.39
2023-05-05T08:57:35.461Z,3.47
2023-05-05T08:58:35.512Z,3.23
2023-05-05T08:59:35.473Z,3.52
2023-05-05T09:00:35.478Z,3.23
2023-05-05T09:01:35.587Z,3.09
2023-05-05T09:02:35.463Z,3.84
2023-05-05T09:03:35.445Z,2.86
2023-05-05T09:04:35.910Z,2.71
2023-05-05T09:05:35.470Z,3.54
2023-05-05T09:06:35.455Z,3.48
2023-05-05T09:07:35.473Z,2.69
2023-05-05T09:08:35.872Z,3.16
2023-05-05T09:09:35.605Z,2.72
2023-05-05T09:10:35.643Z,2.71
2023-05-05T09:11:35.688Z,2.37
2023-05-05T09:12:35.890Z,1.82
2023-05-05T09:13:35.878Z,1.47
2023-05-05T09:14:35.879Z,1.54
2023-05-05T09:15:35.946Z,1.35
2023-05-05T09:16:36.118Z,1.53
2023-05-05T09:17:36.059Z,1.68
2023-05-05T09:18:36.358Z,1.53
2023-05-05T09:19:36.361Z,1.36
2023-05-05T09:20:36.280Z,1.32
2023-05-05T09:21:36.265Z,1.08
2023-05-05T09:22:36.352Z,1.05
2023-05-05T09:23:37.418Z,1.22
2023-05-05T09:24:36.503Z,1.22
2023-05-05T09:25:36.505Z,1.19
2023-05-05T09:26:36.512Z,1.50
2023-05-05T09:27:36.902Z,1.73
2023-05-05T09:28:36.914Z,1.68
2023-05-05T09:29:36.713Z,1.90
2023-05-05T09:30:39.876Z,1.57
2023-05-05T09:31:36.773Z,2.14
2023-05-05T09:32:36.780Z,2.47
2023-05-05T09:33:36.674Z,3.07
2023-05-05T09:34:37.387Z,3.44
2023-05-05T09:35:36.694Z,3.29
2023-05-05T09:36:36.893Z,3.40
2023-05-05T09:37:36.750Z,2.76
2023-05-05T09:38:36.930Z,2.54
2023-05-05T09:39:36.684Z,2.50
2023-05-05T09:40:36.676Z,2.08
2023-05-05T09:41:36.632Z,1.81
2023-05-05T09:42:36.626Z,1.71
2023-05-05T09:43:36.935Z,1.80
2023-05-05T09:44:36.656Z,2.65
2023-05-05T09:45:36.674Z,2.38
2023-05-05T09:46:36.660Z,1.80
2023-05-05T09:47:36.659Z,1.33
2023-05-05T09:48:37.688Z,1.51
2023-05-05T09:49:36.563Z,1.57
2023-05-05T09:50:36.648Z,1.12
2023-05-05T09:51:36.584Z,0.99
2023-05-05T09:52:36.603Z,0.89
2023-05-05T09:53:37.434Z,0.97
2023-05-05T09:54:36.576Z,0.87
2023-05-05T09:55:36.578Z,0.91
2023-05-05T09:56:36.514Z,0.83
2023-05-05T09:57:36.520Z,1.02
2023-05-05T09:58:36.641Z,1.08
2023-05-05T09:59:36.531Z,1.11
2023-05-05T10:00:36.505Z,1.13
2023-05-05T10:01:36.512Z,1.26
2023-05-05T10:02:36.539Z,1.34
2023-05-05T10:03:36.452Z,2.11
2023-05-05T10:04:36.480Z,1.71
2023-05-05T10:05:36.504Z,1.98
2023-05-05T10:06:36.484Z,2.20
2023-05-05T10:07:36.457Z,2.30
2023-05-05T10:08:36.459Z,2.68
2023-05-05T10:09:37.314Z,2.65
2023-05-05T10:10:36.404Z,2.75
2023-05-05T10:11:36.433Z,3.16
2023-05-05T10:12:36.504Z,3.53
2023-05-05T10:13:36.543Z,4.39
2023-05-05T10:14:36.648Z,4.38
2023-05-05T10:15:37.419Z,4.32
2023-05-05T10:16:36.930Z,4.42
2023-05-05T10:17:36.851Z,4.83
2023-05-05T10:18:36.928Z,4.69
2023-05-05T10:19:37.386Z,5.46
2023-05-05T10:20:37.014Z,5.46
2023-05-05T10:21:37.045Z,6.41
2023-05-05T10:22:37.102Z,6.62
2023-05-05T10:23:37.157Z,6.53
2023-05-05T10:24:37.209Z,5.54
2023-05-05T10:25:37.332Z,6.20
2023-05-05T10:26:37.346Z,5.21
2023-05-05T10:27:37.407Z,5.30
2023-05-05T10:28:37.449Z,3.87
2023-05-05T10:29:37.463Z,2.65
2023-05-05T10:30:37.552Z,2.17
2023-05-05T10:31:37.615Z,2.14
2023-05-05T10:33:38.760Z,1.86
2023-05-05T10:34:37.794Z,1.83
2023-05-05T10:35:37.629Z,2.14
2023-05-05T10:36:37.615Z,2.48
2023-05-05T10:37:37.895Z,2.51
2023-05-05T10:38:37.724Z,2.38
2023-05-05T10:39:37.808Z,2.54
2023-05-05T10:40:37.732Z,3.19
2023-05-05T10:41:38.041Z,3.41
2023-05-05T10:42:37.973Z,3.73
2023-05-05T10:43:37.982Z,3.87
2023-05-05T10:44:40.442Z,4.23
2023-05-05T10:45:38.215Z,4.82
2023-05-05T10:46:38.141Z,4.43
2023-05-05T10:47:38.109Z,5.08
2023-05-05T10:48:38.246Z,5.62
2023-05-05T10:49:38.209Z,5.87
2023-05-05T10:50:38.229Z,6.57
2023-05-05T10:51:40.685Z,7.16
2023-05-05T10:52:38.433Z,7.04
2023-05-05T10:53:38.255Z,7.21
2023-05-05T10:54:38.536Z,7.26
2023-05-05T10:55:38.425Z,7.27
2023-05-05T10:56:38.324Z,8.55
2023-05-05T10:57:38.442Z,7.17
2023-05-05T10:58:51.165Z,7.57
2023-05-05T10:59:39.231Z,7.57
2023-05-05T11:00:38.210Z,7.32
2023-05-05T11:01:38.256Z,6.45
2023-05-05T11:02:38.445Z,5.65
2023-05-05T11:03:38.239Z,6.62
2023-05-05T11:04:38.228Z,6.52
2023-05-05T11:05:38.185Z,7.22
2023-05-05T11:06:38.146Z,6.55
2023-05-05T11:07:38.433Z,6.92
2023-05-05T11:08:38.138Z,6.27
2023-05-05T11:09:38.155Z,6.52
2023-05-05T11:10:38.105Z,5.04
2023-05-05T11:11:38.161Z,2.71
2023-05-05T11:12:38.850Z,1.89
2023-05-05T11:13:38.141Z,1.73
2023-05-05T11:14:38.087Z,1.43
2023-05-05T11:15:38.223Z,1.04
2023-05-05T11:16:38.188Z,0.80
2023-05-05T11:17:38.172Z,0.95
2023-05-05T11:18:38.179Z,1.08
2023-05-05T11:19:38.415Z,1.60
2023-05-05T11:20:38.224Z,2.08
2023-05-05T11:21:38.443Z,2.61
2023-05-05T11:22:38.981Z,2.65
2023-05-05T11:23:38.343Z,3.16
2023-05-05T11:24:38.360Z,3.33
2023-05-05T11:25:38.422Z,3.51
2023-05-05T11:26:38.474Z,3.47
2023-05-05T11:27:38.478Z,3.51
2023-05-05T11:28:38.500Z,4.06
2023-05-05T11:29:38.592Z,4.04
2023-05-05T11:30:38.659Z,3.78
2023-05-05T11:31:38.699Z,3.62
2023-05-05T11:32:38.711Z,3.80
2023-05-05T11:33:38.718Z,3.26
2023-05-05T11:34:38.792Z,3.20
2023-05-05T11:35:38.797Z,3.37
2023-05-05T11:36:38.856Z,3.34
2023-05-05T11:37:38.902Z,3.10
2023-05-05T11:38:38.964Z,3.27
2023-05-05T11:39:39.031Z,3.35
2023-05-05T11:40:39.038Z,3.36
2023-05-05T11:41:39.092Z,3.31
2023-05-05T11:42:39.150Z,3.26
2023-05-05T11:43:39.153Z,3.66
2023-05-05T11:44:39.213Z,3.70
2023-05-05T11:45:39.333Z,3.42
2023-05-05T11:46:39.326Z,3.34
2023-05-05T11:47:39.416Z,3.47
2023-05-05T11:48:39.446Z,3.57
2023-05-05T11:49:39.496Z,3.44
2023-05-05T11:50:39.556Z,3.63
2023-05-05T11:51:39.617Z,3.53
2023-05-05T11:52:39.661Z,3.55
2023-05-05T11:53:39.674Z,2.82
2023-05-05T11:54:39.804Z,2.44
2023-05-05T11:55:39.788Z,2.35
2023-05-05T11:56:39.857Z,2.34
2023-05-05T11:57:39.901Z,2.69
2023-05-05T11:58:40.012Z,2.57
2023-05-05T11:59:40.027Z,2.44
2023-05-05T12:00:40.118Z,2.81
2023-05-05T12:01:40.158Z,2.88
2023-05-05T12:02:40.239Z,3.84
2023-05-05T12:03:40.401Z,3.43
2023-05-05T12:04:40.290Z,4.05
2023-05-05T12:05:40.329Z,5.16
2023-05-05T12:06:40.401Z,6.14
2023-05-05T12:07:40.552Z,5.97
2023-05-05T12:08:40.501Z,6.67
2023-05-05T12:09:40.553Z,6.83
2023-05-05T12:10:40.616Z,7.13
2023-05-05T12:11:40.675Z,7.84
2023-05-05T12:12:40.795Z,8.10
2023-05-05T12:13:40.783Z,8.27
2023-05-05T12:14:40.834Z,8.63
2023-05-05T12:15:40.904Z,8.47
2023-05-05T12:16:40.995Z,8.53
2023-05-05T12:17:41.137Z,8.48
2023-05-05T12:18:41.070Z,8.91
2023-05-05T12:19:41.138Z,9.50
2023-05-05T12:20:41.253Z,9.79
2023-05-05T12:21:41.268Z,9.85
2023-05-05T12:22:41.408Z,9.57
2023-05-05T12:23:41.408Z,9.57
2023-05-05T12:24:41.469Z,9.72
2023-05-05T12:25:41.498Z,9.23
2023-05-05T12:26:41.544Z,9.97
2023-05-05T12:27:41.705Z,10.45
2023-05-05T12:28:41.707Z,10.92
2023-05-05T12:29:41.762Z,10.39
2023-05-05T12:30:41.847Z,10.28
2023-05-05T12:31:41.931Z,10.37
2023-05-05T12:32:41.965Z,10.78
2023-05-05T12:33:42.152Z,11.24
2023-05-05T12:34:42.074Z,10.54
2023-05-05T12:35:42.224Z,10.30
2023-05-05T12:36:42.185Z,9.87
2023-05-05T12:37:42.289Z,10.52
2023-05-05T12:38:42.274Z,10.82
2023-05-05T12:39:42.336Z,11.02
2023-05-05T12:40:42.419Z,10.59
2023-05-05T12:41:42.459Z,10.70
2023-05-05T12:42:43.623Z,10.98
2023-05-05T12:43:42.578Z,10.95
2023-05-05T12:44:42.646Z,10.81
2023-05-05T12:45:42.713Z,11.06
2023-05-05T12:46:42.771Z,10.74
2023-05-05T12:47:42.854Z,11.17
2023-05-05T12:48:43.582Z,11.16
2023-05-05T12:49:42.901Z,11.23
2023-05-05T12:50:43.001Z,11.52
2023-05-05T12:51:43.034Z,11.33
2023-05-05T12:52:43.131Z,10.76
2023-05-05T12:53:43.163Z,11.07
2023-05-05T12:54:43.159Z,10.88
2023-05-05T12:55:43.278Z,10.94
2023-05-05T12:56:43.281Z,11.41
2023-05-05T12:57:43.363Z,10.74
2023-05-05T12:58:43.407Z,11.25
2023-05-05T12:59:43.478Z,9.95
2023-05-05T13:00:43.628Z,11.06
2023-05-05T13:01:43.557Z,11.15